createdAt,value
2018-10-06T00:04:06.791Z,1018.9
2018-10-06T00:09:06.601Z,1018.8
2018-10-06T00:14:06.743Z,1018.8
2018-10-06T00:19:06.695Z,1018.9
2018-10-06T00:24:09.796Z,1018.9
2018-10-06T00:29:18.674Z,1018.8
2018-10-06T00:34:18.412Z,1018.7
2018-10-06T00:39:18.389Z,1018.7
2018-10-06T00:44:18.642Z,1018.7
2018-10-06T00:49:18.568Z,1018.7
2018-10-06T00:54:19.232Z,1018.6
2018-10-06T00:59:19.462Z,1018.6
2018-10-06T01:04:19.241Z,1018.5
2018-10-06T01:09:19.410Z,1018.6
2018-10-06T01:14:31.980Z,1018.7
2018-10-06T01:19:31.881Z,1018.6
2018-10-06T01:24:31.904Z,1018.7
2018-10-06T01:29:31.703Z,1018.6
2018-10-06T01:34:31.841Z,1018.6
2018-10-06T01:39:31.722Z,1018.5
2018-10-06T01:44:31.730Z,1018.5
2018-10-06T01:49:31.744Z,1018.6
2018-10-06T01:54:31.747Z,1018.6
2018-10-06T02:04:56.478Z,1018.5
2018-10-06T02:09:56.711Z,1018.5
2018-10-06T02:14:56.491Z,1018.4
2018-10-06T02:19:56.495Z,1018.3
2018-10-06T02:25:07.385Z,1018.3
2018-10-06T02:30:07.745Z,1018.3
2018-10-06T02:35:07.332Z,1018.3
2018-10-06T02:40:07.319Z,1018.4
2018-10-06T02:45:07.106Z,1018.4
2018-10-06T02:50:07.122Z,1018.5
2018-10-06T02:55:07.373Z,1018.5
2018-10-06T03:00:07.131Z,1018.4
2018-10-06T03:05:07.344Z,1018.3
2018-10-06T03:10:18.724Z,1018.4
2018-10-06T03:15:18.668Z,1018.3
2018-10-06T03:20:18.454Z,1018.3
2018-10-06T03:25:18.461Z,1018.3
2018-10-06T03:30:18.606Z,1018.4
2018-10-06T03:35:18.484Z,1018.3
2018-10-06T03:40:18.636Z,1018.3
2018-10-06T03:45:18.532Z,1018.2
2018-10-06T03:50:18.491Z,1018.2
2018-10-06T03:55:18.649Z,1018.2
2018-10-06T04:00:18.645Z,1018.2
2018-10-06T04:05:18.615Z,1018.2
2018-10-06T04:10:18.716Z,1018.1
2018-10-06T04:15:18.863Z,1018.1
2018-10-06T04:20:30.819Z,1018.2
2018-10-06T04:25:30.557Z,1018.1
2018-10-06T04:30:30.740Z,1018.1
2018-10-06T04:35:30.765Z,1018.1
2018-10-06T04:40:30.834Z,1018.1
2018-10-06T04:45:30.547Z,1018.1
2018-10-06T04:50:30.788Z,1018.1
2018-10-06T04:55:30.848Z,1018.1
2018-10-06T05:00:31.029Z,1018.2
2018-10-06T05:05:43.162Z,1018.1
2018-10-06T05:10:42.995Z,1018.1
2018-10-06T05:15:43.021Z,1018.4
2018-10-06T05:20:43.072Z,1018.3
2018-10-06T05:25:43.029Z,1018.3
2018-10-06T05:30:42.904Z,1018.3
2018-10-06T05:35:43.066Z,1018.3
2018-10-06T05:40:42.903Z,1018.3
2018-10-06T05:45:43.102Z,1018.3
2018-10-06T05:50:43.161Z,1018.4
2018-10-06T05:55:42.894Z,1018.4
2018-10-06T06:00:43.109Z,1018.5
2018-10-06T06:05:42.992Z,1018.3
2018-10-06T06:10:43.223Z,1018.3
2018-10-06T06:15:55.446Z,1018.4
2018-10-06T06:20:55.359Z,1018.4
2018-10-06T06:25:55.347Z,1018.4
2018-10-06T06:30:55.171Z,1018.3
2018-10-06T06:35:55.325Z,1018.1
2018-10-06T06:40:55.157Z,1018
2018-10-06T06:45:55.197Z,1018.1
2018-10-06T06:50:55.491Z,1018.1
2018-10-06T06:55:55.325Z,1018
2018-10-06T07:01:07.382Z,1018
2018-10-06T07:06:07.119Z,1018
2018-10-06T07:11:07.075Z,1017.9
2018-10-06T07:16:07.130Z,1017.8
2018-10-06T07:21:07.102Z,1017.8
2018-10-06T07:26:07.093Z,1017.7
2018-10-06T07:31:07.545Z,1017.7
2018-10-06T07:36:12.489Z,1017.7
2018-10-06T07:41:12.533Z,1017.5
2018-10-06T07:46:24.344Z,1017.5
2018-10-06T07:51:24.073Z,1017.5
2018-10-06T07:56:26.827Z,1017.1
2018-10-06T08:01:24.054Z,1017
2018-10-06T08:06:24.435Z,1017.1
2018-10-06T08:11:24.148Z,1017.2
2018-10-06T08:16:24.097Z,1017
2018-10-06T08:21:24.089Z,1017
2018-10-06T08:26:26.251Z,1016.9
2018-10-06T08:31:35.712Z,1016.9
2018-10-06T08:36:35.388Z,1016.7
2018-10-06T08:41:35.480Z,1016.8
2018-10-06T08:46:35.430Z,1016.8
2018-10-06T08:51:35.430Z,1016.7
2018-10-06T08:56:35.422Z,1016.6
2018-10-06T09:01:35.433Z,1016.4
2018-10-06T09:06:35.476Z,1016.4
2018-10-06T09:11:35.433Z,1016.4
2018-10-06T09:16:46.880Z,1016.2
2018-10-06T09:21:46.641Z,1016.2
2018-10-06T09:26:46.626Z,1016.1
2018-10-06T09:31:46.651Z,1016.1
2018-10-06T09:36:46.627Z,1015.9
2018-10-06T09:41:46.766Z,1015.8
2018-10-06T09:46:46.607Z,1015.7
2018-10-06T09:51:49.056Z,1015.6
2018-10-06T09:56:48.779Z,1015.5
2018-10-06T10:01:57.555Z,1015.4
2018-10-06T10:06:57.270Z,1015.4
2018-10-06T10:11:57.564Z,1015.4
2018-10-06T10:16:57.502Z,1015.3
2018-10-06T10:21:57.860Z,1015.2
2018-10-06T10:26:57.553Z,1015
2018-10-06T10:31:57.293Z,1015
2018-10-06T10:36:57.899Z,1014.9
2018-10-06T10:41:57.662Z,1014.8
2018-10-06T10:47:10.495Z,1014.6
2018-10-06T10:52:10.079Z,1014.6
2018-10-06T10:57:10.072Z,1014.5
2018-10-06T11:02:10.111Z,1014.2
2018-10-06T11:07:10.106Z,1014.2
2018-10-06T11:12:10.143Z,1014.1
2018-10-06T11:17:10.253Z,1013.9
2018-10-06T11:22:12.351Z,1013.8
2018-10-06T11:27:12.085Z,1013.7
2018-10-06T11:32:21.981Z,1013.6
2018-10-06T11:37:22.079Z,1013.6
2018-10-06T11:42:21.896Z,1013.5
2018-10-06T11:47:21.719Z,1013.4
2018-10-06T11:52:21.927Z,1013.3
2018-10-06T11:57:21.896Z,1013.4
2018-10-06T12:02:22.062Z,1013.3
2018-10-06T12:07:23.851Z,1013.2
2018-10-06T12:12:23.514Z,1013.2
2018-10-06T12:17:35.406Z,1013
2018-10-06T12:22:35.154Z,1013
2018-10-06T12:27:35.173Z,1012.9
2018-10-06T12:32:35.216Z,1012.7
2018-10-06T12:37:35.170Z,1012.7
2018-10-06T12:42:35.217Z,1012.6
2018-10-06T12:47:35.313Z,1012.4
2018-10-06T12:52:35.185Z,1012.4
2018-10-06T12:57:35.314Z,1012.3
2018-10-06T13:02:46.427Z,1012.2
2018-10-06T13:07:46.124Z,1012.2
2018-10-06T13:12:46.157Z,1012.4
2018-10-06T13:17:46.313Z,1012.3
2018-10-06T13:22:46.341Z,1012.3
2018-10-06T13:27:46.382Z,1012.2
2018-10-06T13:32:46.282Z,1012.1
2018-10-06T13:37:47.097Z,1012
2018-10-06T13:42:46.997Z,1012
2018-10-06T13:47:59.093Z,1011.9
2018-10-06T13:52:58.814Z,1012
2018-10-06T13:57:59.161Z,1011.9
2018-10-06T14:02:58.875Z,1011.8
2018-10-06T14:07:58.848Z,1011.8
2018-10-06T14:12:58.975Z,1011.7
2018-10-06T14:17:58.832Z,1011.7
2018-10-06T14:22:59.635Z,1011.6
2018-10-06T14:27:59.362Z,1011.3
2018-10-06T14:33:15.145Z,1011.2
2018-10-06T14:38:12.025Z,1011.2
2018-10-06T14:43:12.060Z,1011.1
2018-10-06T14:48:12.312Z,1011.1
2018-10-06T14:53:13.516Z,1011
2018-10-06T14:58:12.431Z,1011
2018-10-06T15:03:12.315Z,1010.9
2018-10-06T15:08:14.799Z,1011
2018-10-06T15:13:14.563Z,1010.9
2018-10-06T15:18:14.818Z,1010.9
2018-10-06T15:23:14.685Z,1010.9
2018-10-06T15:28:14.971Z,1010.9
2018-10-06T15:33:14.714Z,1010.9
2018-10-06T15:38:14.780Z,1010.9
2018-10-06T15:43:26.652Z,1010.9
2018-10-06T15:48:26.536Z,1010.8
2018-10-06T15:53:26.588Z,1010.8
2018-10-06T15:58:26.404Z,1010.7
2018-10-06T16:03:26.550Z,1010.7
2018-10-06T16:08:26.605Z,1010.8
2018-10-06T16:13:27.131Z,1010.8
2018-10-06T16:18:26.442Z,1010.8
2018-10-06T16:23:26.443Z,1010.8
2018-10-06T16:28:38.481Z,1010.9
2018-10-06T16:33:38.774Z,1011
2018-10-06T16:38:38.342Z,1011.1
2018-10-06T16:43:38.190Z,1011.1
2018-10-06T16:48:38.212Z,1011.1
2018-10-06T16:53:38.352Z,1011.1
2018-10-06T16:58:38.381Z,1011
2018-10-06T17:03:41.407Z,1011
2018-10-06T17:08:41.085Z,1011
2018-10-06T17:13:53.809Z,1011.1
2018-10-06T17:18:53.498Z,1011.2
2018-10-06T17:23:53.883Z,1011.2
2018-10-06T17:28:53.500Z,1011.3
2018-10-06T17:33:53.534Z,1011.3
2018-10-06T17:38:53.977Z,1011.3
2018-10-06T17:43:53.768Z,1011.2
2018-10-06T17:48:56.841Z,1011.3
2018-10-06T17:53:56.780Z,1011.2
2018-10-06T17:59:09.223Z,1011.2
2018-10-06T18:04:09.155Z,1011.3
2018-10-06T18:09:09.238Z,1011.2
2018-10-06T18:14:09.118Z,1011.3
2018-10-06T18:19:08.977Z,1011.2
2018-10-06T18:24:08.944Z,1011.2
2018-10-06T18:29:09.355Z,1011.2
2018-10-06T18:34:09.198Z,1011.3
2018-10-06T18:39:09.236Z,1011.4
2018-10-06T18:44:09.143Z,1011.4
2018-10-06T18:49:09.471Z,1011.4
2018-10-06T18:54:09.164Z,1011.4
2018-10-06T18:59:08.973Z,1011.4
2018-10-06T19:04:09.881Z,1011.3
2018-10-06T19:09:23.781Z,1011.5
2018-10-06T19:14:23.472Z,1011.5
2018-10-06T19:19:23.680Z,1011.6
2018-10-06T19:24:23.728Z,1011.7
2018-10-06T19:29:23.522Z,1011.7
2018-10-06T19:34:23.740Z,1011.6
2018-10-06T19:39:23.774Z,1011.6
2018-10-06T19:44:24.060Z,1011.5
2018-10-06T19:49:23.699Z,1011.6
2018-10-06T19:54:23.709Z,1011.6
2018-10-06T19:59:24.555Z,1011.7
2018-10-06T20:04:24.067Z,1011.6
2018-10-06T20:09:25.975Z,1011.7
2018-10-06T20:14:26.871Z,1011.8
2018-10-06T20:19:40.209Z,1011.7
2018-10-06T20:24:39.747Z,1011.8
2018-10-06T20:29:39.783Z,1011.7
2018-10-06T20:34:40.005Z,1011.7
2018-10-06T20:39:39.962Z,1011.6
2018-10-06T20:44:39.718Z,1011.7
2018-10-06T20:49:39.883Z,1011.7
2018-10-06T20:54:40.911Z,1011.7
2018-10-06T20:59:40.843Z,1011.6
2018-10-06T21:04:52.809Z,1011.6
2018-10-06T21:09:52.638Z,1011.5
2018-10-06T21:14:52.517Z,1011.5
2018-10-06T21:19:52.521Z,1011.5
2018-10-06T21:24:52.515Z,1011.5
2018-10-06T21:29:52.599Z,1011.5
2018-10-06T21:34:53.063Z,1011.5
2018-10-06T21:39:52.673Z,1011.4
2018-10-06T21:44:52.552Z,1011.3
2018-10-06T21:49:52.543Z,1011.3
2018-10-06T21:54:52.517Z,1011.3
2018-10-06T21:59:52.611Z,1011.2
2018-10-06T22:04:52.577Z,1011.2
2018-10-06T22:09:52.665Z,1011.3
2018-10-06T22:15:06.337Z,1011.2
2018-10-06T22:20:05.935Z,1011.1
2018-10-06T22:25:05.952Z,1011.1
2018-10-06T22:30:05.986Z,1011.1
2018-10-06T22:35:05.936Z,1011.2
2018-10-06T22:40:05.992Z,1011.3
2018-10-06T22:45:05.937Z,1011.3
2018-10-06T22:50:05.948Z,1011.2
2018-10-06T22:55:06.110Z,1011.2
2018-10-06T23:00:18.227Z,1011.2
2018-10-06T23:05:18.318Z,1011.2
2018-10-06T23:10:18.050Z,1011.3
2018-10-06T23:15:18.107Z,1011.2
2018-10-06T23:20:18.158Z,1011.2
2018-10-06T23:25:18.226Z,1011.3
2018-10-06T23:30:18.156Z,1011.2
2018-10-06T23:35:18.424Z,1011.2
2018-10-06T23:40:18.414Z,1011.2
2018-10-06T23:45:30.563Z,1011.1
2018-10-06T23:50:30.436Z,1011.3
2018-10-06T23:55:30.486Z,1011.4
